Disclaimer

Please do not use the information listed here in-flight or in-navigation, as they are not provided to us by the airports but are provided by volunteers, so they might be outdated.

Search


Regions


Airport information page

Radio informations:
Tower (TWR) - 118.1 MHz
TAIPEI APP - 119.7 MHz

Latitude: N/A
Longitude: N/A
Elevation: N/A
Operating hours: N/A
Operating agency: N/A
Timezone: N/A
Fuel: N/A

Recent METARs:
RCSS 171400Z 09008KT 9999 FEW018 SCT035 BKN050 16/12 Q1026 NOSIG RMK A3031
RCSS 171430Z 09009KT 9999 FEW018 SCT035 BKN050 16/12 Q1026 NOSIG RMK A3030
RCSS 171500Z 09009KT 9999 FEW018 SCT030 BKN050 16/11 Q1026 NOSIG RMK A3030

Airport on the map: